sensor_id;sensor_type;location;lat;lon;timestamp;temperature;humidity
69938;DHT22;57248;47.320;15.998;2023-07-16T00:00:51;19.11;92.71
69938;DHT22;57248;47.320;15.998;2023-07-16T00:03:23;19.10;90.96
69938;DHT22;57248;47.320;15.998;2023-07-16T00:05:51;19.11;90.38
69938;DHT22;57248;47.320;15.998;2023-07-16T00:08:24;19.06;90.60
69938;DHT22;57248;47.320;15.998;2023-07-16T00:10:57;19.02;91.05
69938;DHT22;57248;47.320;15.998;2023-07-16T00:13:29;18.92;91.73
69938;DHT22;57248;47.320;15.998;2023-07-16T00:16:01;18.87;92.79
69938;DHT22;57248;47.320;15.998;2023-07-16T00:18:33;18.94;92.27
69938;DHT22;57248;47.320;15.998;2023-07-16T00:21:05;18.93;91.37
69938;DHT22;57248;47.320;15.998;2023-07-16T00:23:37;18.94;91.78
69938;DHT22;57248;47.320;15.998;2023-07-16T00:26:02;18.93;92.31
69938;DHT22;57248;47.320;15.998;2023-07-16T00:28:35;18.89;92.36
69938;DHT22;57248;47.320;15.998;2023-07-16T00:31:07;18.62;94.40
69938;DHT22;57248;47.320;15.998;2023-07-16T00:33:39;18.76;94.07
69938;DHT22;57248;47.320;15.998;2023-07-16T00:36:11;18.82;92.32
69938;DHT22;57248;47.320;15.998;2023-07-16T00:38:50;18.79;91.47
69938;DHT22;57248;47.320;15.998;2023-07-16T00:41:22;18.73;92.46
69938;DHT22;57248;47.320;15.998;2023-07-16T00:43:55;18.69;91.95
69938;DHT22;57248;47.320;15.998;2023-07-16T00:46:27;18.60;92.60
69938;DHT22;57248;47.320;15.998;2023-07-16T00:49:01;18.39;94.49
69938;DHT22;57248;47.320;15.998;2023-07-16T00:51:33;18.51;93.58
69938;DHT22;57248;47.320;15.998;2023-07-16T00:54:06;18.36;94.49
69938;DHT22;57248;47.320;15.998;2023-07-16T00:56:31;18.43;93.56
69938;DHT22;57248;47.320;15.998;2023-07-16T00:59:04;18.45;92.74
69938;DHT22;57248;47.320;15.998;2023-07-16T01:01:37;18.45;92.25
69938;DHT22;57248;47.320;15.998;2023-07-16T01:04:12;18.43;92.69
69938;DHT22;57248;47.320;15.998;2023-07-16T01:06:48;18.41;91.77
69938;DHT22;57248;47.320;15.998;2023-07-16T01:09:22;18.35;92.62
69938;DHT22;57248;47.320;15.998;2023-07-16T01:11:55;18.11;94.37
69938;DHT22;57248;47.320;15.998;2023-07-16T01:14:27;18.19;94.13
69938;DHT22;57248;47.320;15.998;2023-07-16T01:17:04;18.26;94.09
69938;DHT22;57248;47.320;15.998;2023-07-16T01:19:36;18.31;94.62
69938;DHT22;57248;47.320;15.998;2023-07-16T01:22:27;18.25;95.37
69938;DHT22;57248;47.320;15.998;2023-07-16T01:25:29;18.32;94.49
69938;DHT22;57248;47.320;15.998;2023-07-16T01:28:21;18.29;93.59
69938;DHT22;57248;47.320;15.998;2023-07-16T01:30:55;18.24;93.36
69938;DHT22;57248;47.320;15.998;2023-07-16T01:33:21;18.18;93.15
69938;DHT22;57248;47.320;15.998;2023-07-16T01:36:00;18.14;92.70
69938;DHT22;57248;47.320;15.998;2023-07-16T01:38:32;18.09;92.90
69938;DHT22;57248;47.320;15.998;2023-07-16T01:41:04;18.08;93.16
69938;DHT22;57248;47.320;15.998;2023-07-16T01:43:36;18.05;92.48
69938;DHT22;57248;47.320;15.998;2023-07-16T01:46:02;17.97;92.49
69938;DHT22;57248;47.320;15.998;2023-07-16T01:48:37;17.98;92.65
69938;DHT22;57248;47.320;15.998;2023-07-16T01:51:09;17.84;93.89
69938;DHT22;57248;47.320;15.998;2023-07-16T01:53:41;17.78;94.09
69938;DHT22;57248;47.320;15.998;2023-07-16T01:56:13;17.81;94.37
69938;DHT22;57248;47.320;15.998;2023-07-16T01:58:47;17.77;93.14
69938;DHT22;57248;47.320;15.998;2023-07-16T02:01:19;17.74;93.86
69938;DHT22;57248;47.320;15.998;2023-07-16T02:03:51;17.75;94.29
69938;DHT22;57248;47.320;15.998;2023-07-16T02:06:23;17.81;93.79
69938;DHT22;57248;47.320;15.998;2023-07-16T02:08:55;17.73;93.17
69938;DHT22;57248;47.320;15.998;2023-07-16T02:11:27;17.69;93.56
69938;DHT22;57248;47.320;15.998;2023-07-16T02:14:00;17.54;94.36
69938;DHT22;57248;47.320;15.998;2023-07-16T02:16:25;17.62;93.70
69938;DHT22;57248;47.320;15.998;2023-07-16T02:18:57;17.60;92.98
69938;DHT22;57248;47.320;15.998;2023-07-16T02:21:29;17.59;93.24
69938;DHT22;57248;47.320;15.998;2023-07-16T02:24:01;17.50;93.45
69938;DHT22;57248;47.320;15.998;2023-07-16T02:26:33;17.46;93.25
69938;DHT22;57248;47.320;15.998;2023-07-16T02:29:05;17.50;94.04
69938;DHT22;57248;47.320;15.998;2023-07-16T02:31:40;17.46;94.60
69938;DHT22;57248;47.320;15.998;2023-07-16T02:34:05;17.47;94.21
69938;DHT22;57248;47.320;15.998;2023-07-16T02:36:39;17.43;93.78
69938;DHT22;57248;47.320;15.998;2023-07-16T02:39:18;17.43;94.01
69938;DHT22;57248;47.320;15.998;2023-07-16T02:41:44;17.36;94.14
69938;DHT22;57248;47.320;15.998;2023-07-16T02:44:16;17.46;94.63
69938;DHT22;57248;47.320;15.998;2023-07-16T02:46:48;17.37;94.12
69938;DHT22;57248;47.320;15.998;2023-07-16T02:49:13;17.35;93.95
69938;DHT22;57248;47.320;15.998;2023-07-16T02:51:45;17.32;94.80
69938;DHT22;57248;47.320;15.998;2023-07-16T02:54:17;17.20;95.26
69938;DHT22;57248;47.320;15.998;2023-07-16T02:56:49;17.20;96.08
69938;DHT22;57248;47.320;15.998;2023-07-16T02:59:14;17.27;95.85
69938;DHT22;57248;47.320;15.998;2023-07-16T03:01:46;17.39;95.28
69938;DHT22;57248;47.320;15.998;2023-07-16T03:04:18;17.35;94.67
69938;DHT22;57248;47.320;15.998;2023-07-16T03:06:51;17.18;95.40
69938;DHT22;57248;47.320;15.998;2023-07-16T03:09:23;17.19;95.24
69938;DHT22;57248;47.320;15.998;2023-07-16T03:11:48;17.23;95.70
69938;DHT22;57248;47.320;15.998;2023-07-16T03:14:20;17.18;95.45
69938;DHT22;57248;47.320;15.998;2023-07-16T03:16:52;17.19;95.84
69938;DHT22;57248;47.320;15.998;2023-07-16T03:19:25;17.30;95.57
69938;DHT22;57248;47.320;15.998;2023-07-16T03:21:57;17.35;95.43
69938;DHT22;57248;47.320;15.998;2023-07-16T03:24:29;17.35;94.83
69938;DHT22;57248;47.320;15.998;2023-07-16T03:26:55;17.30;94.97
69938;DHT22;57248;47.320;15.998;2023-07-16T03:29:27;17.23;94.43
69938;DHT22;57248;47.320;15.998;2023-07-16T03:31:53;17.26;94.57
69938;DHT22;57248;47.320;15.998;2023-07-16T03:34:25;17.29;94.00
69938;DHT22;57248;47.320;15.998;2023-07-16T03:37:04;17.22;95.07
69938;DHT22;57248;47.320;15.998;2023-07-16T03:39:36;17.22;95.97
69938;DHT22;57248;47.320;15.998;2023-07-16T03:42:08;17.29;94.94
69938;DHT22;57248;47.320;15.998;2023-07-16T03:44:40;17.37;94.44
69938;DHT22;57248;47.320;15.998;2023-07-16T03:47:12;17.32;94.36
69938;DHT22;57248;47.320;15.998;2023-07-16T03:49:44;17.36;93.94
69938;DHT22;57248;47.320;15.998;2023-07-16T03:52:16;17.35;94.14
69938;DHT22;57248;47.320;15.998;2023-07-16T03:54:41;17.33;94.10
69938;DHT22;57248;47.320;15.998;2023-07-16T03:57:13;17.33;93.90
69938;DHT22;57248;47.320;15.998;2023-07-16T03:59:38;17.40;94.70
69938;DHT22;57248;47.320;15.998;2023-07-16T04:02:10;17.47;95.35
69938;DHT22;57248;47.320;15.998;2023-07-16T04:04:43;17.51;94.28
69938;DHT22;57248;47.320;15.998;2023-07-16T04:07:15;17.56;93.71
69938;DHT22;57248;47.320;15.998;2023-07-16T04:09:47;17.56;94.17
69938;DHT22;57248;47.320;15.998;2023-07-16T04:12:19;17.60;94.50
69938;DHT22;57248;47.320;15.998;2023-07-16T04:14:55;17.70;94.07
69938;DHT22;57248;47.320;15.998;2023-07-16T04:17:28;17.87;94.47
69938;DHT22;57248;47.320;15.998;2023-07-16T04:20:00;17.98;94.53
69938;DHT22;57248;47.320;15.998;2023-07-16T04:22:33;18.15;93.93
69938;DHT22;57248;47.320;15.998;2023-07-16T04:25:06;18.28;93.63
69938;DHT22;57248;47.320;15.998;2023-07-16T04:27:32;18.46;93.24
69938;DHT22;57248;47.320;15.998;2023-07-16T04:30:04;18.51;94.02
69938;DHT22;57248;47.320;15.998;2023-07-16T04:32:38;18.59;93.72
69938;DHT22;57248;47.320;15.998;2023-07-16T04:35:04;18.77;93.95
69938;DHT22;57248;47.320;15.998;2023-07-16T04:37:36;19.00;92.84
69938;DHT22;57248;47.320;15.998;2023-07-16T04:40:15;19.14;92.68
69938;DHT22;57248;47.320;15.998;2023-07-16T04:42:47;19.30;92.79
69938;DHT22;57248;47.320;15.998;2023-07-16T04:45:20;19.59;93.36
69938;DHT22;57248;47.320;15.998;2023-07-16T04:47:52;19.83;92.38
69938;DHT22;57248;47.320;15.998;2023-07-16T04:50:24;19.90;92.38
69938;DHT22;57248;47.320;15.998;2023-07-16T04:52:56;20.13;92.03
69938;DHT22;57248;47.320;15.998;2023-07-16T04:55:34;20.27;91.80
69938;DHT22;57248;47.320;15.998;2023-07-16T04:58:06;20.55;91.21
69938;DHT22;57248;47.320;15.998;2023-07-16T05:00:38;20.48;91.24
69938;DHT22;57248;47.320;15.998;2023-07-16T05:03:10;20.67;90.73
69938;DHT22;57248;47.320;15.998;2023-07-16T05:05:42;21.01;90.49
69938;DHT22;57248;47.320;15.998;2023-07-16T05:08:14;21.31;90.41
69938;DHT22;57248;47.320;15.998;2023-07-16T05:10:46;21.60;89.07
69938;DHT22;57248;47.320;15.998;2023-07-16T05:13:18;21.36;88.63
69938;DHT22;57248;47.320;15.998;2023-07-16T05:15:51;21.76;88.99
69938;DHT22;57248;47.320;15.998;2023-07-16T05:18:16;22.05;88.30
69938;DHT22;57248;47.320;15.998;2023-07-16T05:20:49;22.45;87.42
69938;DHT22;57248;47.320;15.998;2023-07-16T05:23:21;22.60;86.13
69938;DHT22;57248;47.320;15.998;2023-07-16T05:25:48;22.56;85.44
69938;DHT22;57248;47.320;15.998;2023-07-16T05:28:21;22.77;85.36
69938;DHT22;57248;47.320;15.998;2023-07-16T05:31:00;23.27;87.05
69938;DHT22;57248;47.320;15.998;2023-07-16T05:33:32;23.50;84.10
69938;DHT22;57248;47.320;15.998;2023-07-16T05:35:57;23.57;83.09
69938;DHT22;57248;47.320;15.998;2023-07-16T05:38:29;23.81;82.75
69938;DHT22;57248;47.320;15.998;2023-07-16T05:41:00;24.01;81.54
69938;DHT22;57248;47.320;15.998;2023-07-16T05:43:34;24.27;82.37
69938;DHT22;57248;47.320;15.998;2023-07-16T05:46:06;24.40;81.09
69938;DHT22;57248;47.320;15.998;2023-07-16T05:48:39;24.43;80.89
69938;DHT22;57248;47.320;15.998;2023-07-16T05:51:11;24.43;80.56
69938;DHT22;57248;47.320;15.998;2023-07-16T05:53:43;24.83;79.31
69938;DHT22;57248;47.320;15.998;2023-07-16T05:56:15;25.24;78.47
69938;DHT22;57248;47.320;15.998;2023-07-16T05:58:47;25.25;78.06
69938;DHT22;57248;47.320;15.998;2023-07-16T06:01:19;25.76;77.89
69938;DHT22;57248;47.320;15.998;2023-07-16T06:03:51;26.07;77.58
69938;DHT22;57248;47.320;15.998;2023-07-16T06:06:23;26.18;75.72
69938;DHT22;57248;47.320;15.998;2023-07-16T06:08:55;26.37;76.62
69938;DHT22;57248;47.320;15.998;2023-07-16T06:11:27;26.16;74.23
69938;DHT22;57248;47.320;15.998;2023-07-16T06:13:59;25.96;72.50
69938;DHT22;57248;47.320;15.998;2023-07-16T06:16:31;26.55;74.47
69938;DHT22;57248;47.320;15.998;2023-07-16T06:18:56;26.81;72.79
69938;DHT22;57248;47.320;15.998;2023-07-16T06:21:28;27.14;73.21
69938;DHT22;57248;47.320;15.998;2023-07-16T06:24:02;27.32;71.31
69938;DHT22;57248;47.320;15.998;2023-07-16T06:26:50;27.57;70.51
69938;DHT22;57248;47.320;15.998;2023-07-16T06:29:22;28.02;71.76
69938;DHT22;57248;47.320;15.998;2023-07-16T06:32:01;28.32;70.70
69938;DHT22;57248;47.320;15.998;2023-07-16T06:34:34;27.55;69.98
69938;DHT22;57248;47.320;15.998;2023-07-16T06:37:13;28.35;66.67
69938;DHT22;57248;47.320;15.998;2023-07-16T06:39:45;28.76;63.49
69938;DHT22;57248;47.320;15.998;2023-07-16T06:42:17;28.69;61.25
69938;DHT22;57248;47.320;15.998;2023-07-16T06:44:49;28.81;66.74
69938;DHT22;57248;47.320;15.998;2023-07-16T06:47:21;29.66;67.81
69938;DHT22;57248;47.320;15.998;2023-07-16T06:49:53;29.89;62.47
69938;DHT22;57248;47.320;15.998;2023-07-16T06:52:25;29.66;59.87
69938;DHT22;57248;47.320;15.998;2023-07-16T06:55:01;29.08;65.49
69938;DHT22;57248;47.320;15.998;2023-07-16T06:57:33;29.28;65.24
69938;DHT22;57248;47.320;15.998;2023-07-16T07:00:07;29.62;64.56
69938;DHT22;57248;47.320;15.998;2023-07-16T07:02:42;30.10;64.15
69938;DHT22;57248;47.320;15.998;2023-07-16T07:05:15;30.30;63.50
69938;DHT22;57248;47.320;15.998;2023-07-16T07:07:47;30.12;62.31
69938;DHT22;57248;47.320;15.998;2023-07-16T07:10:20;30.96;59.48
69938;DHT22;57248;47.320;15.998;2023-07-16T07:12:52;31.62;59.18
69938;DHT22;57248;47.320;15.998;2023-07-16T07:15:26;31.72;58.68
69938;DHT22;57248;47.320;15.998;2023-07-16T07:17:58;31.59;56.39
69938;DHT22;57248;47.320;15.998;2023-07-16T07:20:30;31.54;57.07
69938;DHT22;57248;47.320;15.998;2023-07-16T07:23:03;31.83;57.50
69938;DHT22;57248;47.320;15.998;2023-07-16T07:25:36;32.13;54.97
69938;DHT22;57248;47.320;15.998;2023-07-16T07:28:08;32.59;56.71
69938;DHT22;57248;47.320;15.998;2023-07-16T07:30:33;32.55;52.96
69938;DHT22;57248;47.320;15.998;2023-07-16T07:33:06;33.44;52.05
69938;DHT22;57248;47.320;15.998;2023-07-16T07:35:38;33.46;51.96
69938;DHT22;57248;47.320;15.998;2023-07-16T07:38:17;34.32;51.60
69938;DHT22;57248;47.320;15.998;2023-07-16T07:40:43;34.96;48.41
69938;DHT22;57248;47.320;15.998;2023-07-16T07:43:15;34.63;45.82
69938;DHT22;57248;47.320;15.998;2023-07-16T07:45:47;34.63;47.28
69938;DHT22;57248;47.320;15.998;2023-07-16T07:48:19;34.36;47.16
69938;DHT22;57248;47.320;15.998;2023-07-16T07:50:53;33.20;49.39
69938;DHT22;57248;47.320;15.998;2023-07-16T07:53:26;32.66;49.00
69938;DHT22;57248;47.320;15.998;2023-07-16T07:55:58;33.39;47.92
69938;DHT22;57248;47.320;15.998;2023-07-16T07:58:31;35.21;45.29
69938;DHT22;57248;47.320;15.998;2023-07-16T08:01:07;36.68;42.48
69938;DHT22;57248;47.320;15.998;2023-07-16T08:03:39;35.89;43.31
69938;DHT22;57248;47.320;15.998;2023-07-16T08:06:11;36.48;41.03
69938;DHT22;57248;47.320;15.998;2023-07-16T08:08:44;39.33;37.75
69938;DHT22;57248;47.320;15.998;2023-07-16T08:11:16;40.31;37.25
69938;DHT22;57248;47.320;15.998;2023-07-16T08:13:49;40.45;35.91
69938;DHT22;57248;47.320;15.998;2023-07-16T08:16:21;41.89;35.47
69938;DHT22;57248;47.320;15.998;2023-07-16T08:18:53;42.21;34.79
69938;DHT22;57248;47.320;15.998;2023-07-16T08:21:26;42.66;32.94
69938;DHT22;57248;47.320;15.998;2023-07-16T08:23:57;41.84;35.51
69938;DHT22;57248;47.320;15.998;2023-07-16T08:26:29;42.19;33.50
69938;DHT22;57248;47.320;15.998;2023-07-16T08:29:01;44.16;31.13
69938;DHT22;57248;47.320;15.998;2023-07-16T08:31:34;43.88;32.76
69938;DHT22;57248;47.320;15.998;2023-07-16T08:34:08;43.28;32.91
69938;DHT22;57248;47.320;15.998;2023-07-16T08:36:46;43.61;35.04
69938;DHT22;57248;47.320;15.998;2023-07-16T08:39:18;41.84;33.98
69938;DHT22;57248;47.320;15.998;2023-07-16T08:41:53;42.78;32.93
69938;DHT22;57248;47.320;15.998;2023-07-16T08:44:26;44.23;33.39
69938;DHT22;57248;47.320;15.998;2023-07-16T08:46:58;45.38;30.33
69938;DHT22;57248;47.320;15.998;2023-07-16T08:49:33;46.37;30.16
69938;DHT22;57248;47.320;15.998;2023-07-16T08:52:07;46.14;30.68
69938;DHT22;57248;47.320;15.998;2023-07-16T08:54:42;45.60;31.62
69938;DHT22;57248;47.320;15.998;2023-07-16T08:57:14;46.12;28.22
69938;DHT22;57248;47.320;15.998;2023-07-16T08:59:48;46.85;30.36
69938;DHT22;57248;47.320;15.998;2023-07-16T09:02:20;45.69;30.37
69938;DHT22;57248;47.320;15.998;2023-07-16T09:04:48;45.19;30.78
69938;DHT22;57248;47.320;15.998;2023-07-16T09:07:23;48.31;27.38
69938;DHT22;57248;47.320;15.998;2023-07-16T09:09:59;45.99;29.18
69938;DHT22;57248;47.320;15.998;2023-07-16T09:12:32;47.81;29.19
69938;DHT22;57248;47.320;15.998;2023-07-16T09:14:58;47.16;29.38
69938;DHT22;57248;47.320;15.998;2023-07-16T09:17:30;46.24;29.58
69938;DHT22;57248;47.320;15.998;2023-07-16T09:20:02;47.22;28.38
69938;DHT22;57248;47.320;15.998;2023-07-16T09:22:34;46.92;28.41
69938;DHT22;57248;47.320;15.998;2023-07-16T09:25:06;47.19;28.98
69938;DHT22;57248;47.320;15.998;2023-07-16T09:27:38;47.48;28.90
69938;DHT22;57248;47.320;15.998;2023-07-16T09:30:16;49.19;28.45
69938;DHT22;57248;47.320;15.998;2023-07-16T09:32:48;48.98;27.29
69938;DHT22;57248;47.320;15.998;2023-07-16T09:35:20;48.94;27.98
69938;DHT22;57248;47.320;15.998;2023-07-16T09:38:00;49.13;27.07
69938;DHT22;57248;47.320;15.998;2023-07-16T09:40:31;49.42;25.03
69938;DHT22;57248;47.320;15.998;2023-07-16T09:43:03;50.55;25.95
69938;DHT22;57248;47.320;15.998;2023-07-16T09:45:37;47.32;27.56
69938;DHT22;57248;47.320;15.998;2023-07-16T09:48:09;45.38;27.86
69938;DHT22;57248;47.320;15.998;2023-07-16T09:50:55;48.14;27.35
69938;DHT22;57248;47.320;15.998;2023-07-16T09:53:30;45.77;28.39
69938;DHT22;57248;47.320;15.998;2023-07-16T09:56:05;47.15;27.70
69938;DHT22;57248;47.320;15.998;2023-07-16T09:58:38;43.72;28.97
69938;DHT22;57248;47.320;15.998;2023-07-16T10:01:11;48.79;27.97
69938;DHT22;57248;47.320;15.998;2023-07-16T10:03:50;47.06;28.19
69938;DHT22;57248;47.320;15.998;2023-07-16T10:06:23;49.87;27.21
69938;DHT22;57248;47.320;15.998;2023-07-16T10:08:55;47.56;25.88
69938;DHT22;57248;47.320;15.998;2023-07-16T10:11:36;48.72;26.68
69938;DHT22;57248;47.320;15.998;2023-07-16T10:14:08;48.50;27.42
69938;DHT22;57248;47.320;15.998;2023-07-16T10:16:40;48.88;25.79
69938;DHT22;57248;47.320;15.998;2023-07-16T10:19:23;50.95;25.96
69938;DHT22;57248;47.320;15.998;2023-07-16T10:21:55;49.63;25.27
69938;DHT22;57248;47.320;15.998;2023-07-16T10:24:27;51.70;26.02
69938;DHT22;57248;47.320;15.998;2023-07-16T10:26:55;50.66;26.30
69938;DHT22;57248;47.320;15.998;2023-07-16T10:29:28;49.09;24.39
69938;DHT22;57248;47.320;15.998;2023-07-16T10:31:59;48.85;25.04
69938;DHT22;57248;47.320;15.998;2023-07-16T10:34:34;47.98;25.81
69938;DHT22;57248;47.320;15.998;2023-07-16T10:37:13;48.39;24.98
69938;DHT22;57248;47.320;15.998;2023-07-16T10:39:47;48.17;26.05
69938;DHT22;57248;47.320;15.998;2023-07-16T10:42:22;49.80;25.80
69938;DHT22;57248;47.320;15.998;2023-07-16T10:44:57;50.00;25.64
69938;DHT22;57248;47.320;15.998;2023-07-16T10:50:09;45.60;27.89
69938;DHT22;57248;47.320;15.998;2023-07-16T10:52:41;48.17;26.29
69938;DHT22;57248;47.320;15.998;2023-07-16T10:55:13;45.16;29.17
69938;DHT22;57248;47.320;15.998;2023-07-16T10:57:49;42.43;31.00
69938;DHT22;57248;47.320;15.998;2023-07-16T11:00:23;47.33;28.23
69938;DHT22;57248;47.320;15.998;2023-07-16T11:02:55;49.26;26.21
69938;DHT22;57248;47.320;15.998;2023-07-16T11:05:28;49.27;26.74
69938;DHT22;57248;47.320;15.998;2023-07-16T11:08:00;51.30;25.19
69938;DHT22;57248;47.320;15.998;2023-07-16T11:10:33;48.27;25.75
69938;DHT22;57248;47.320;15.998;2023-07-16T11:13:05;48.94;25.02
69938;DHT22;57248;47.320;15.998;2023-07-16T11:15:39;49.64;25.16
69938;DHT22;57248;47.320;15.998;2023-07-16T11:18:04;52.32;23.55
69938;DHT22;57248;47.320;15.998;2023-07-16T11:20:36;51.34;23.44
69938;DHT22;57248;47.320;15.998;2023-07-16T11:23:03;50.32;24.29
69938;DHT22;57248;47.320;15.998;2023-07-16T11:25:35;48.21;25.85
69938;DHT22;57248;47.320;15.998;2023-07-16T11:28:07;47.53;27.11
69938;DHT22;57248;47.320;15.998;2023-07-16T11:30:39;50.63;24.43
69938;DHT22;57248;47.320;15.998;2023-07-16T11:33:12;51.68;22.60
69938;DHT22;57248;47.320;15.998;2023-07-16T11:35:47;47.97;24.81
69938;DHT22;57248;47.320;15.998;2023-07-16T11:38:26;44.31;28.72
69938;DHT22;57248;47.320;15.998;2023-07-16T11:41:00;48.29;27.48
69938;DHT22;57248;47.320;15.998;2023-07-16T11:43:36;46.44;28.78
69938;DHT22;57248;47.320;15.998;2023-07-16T11:46:15;44.79;28.97
69938;DHT22;57248;47.320;15.998;2023-07-16T11:48:47;46.79;28.89
69938;DHT22;57248;47.320;15.998;2023-07-16T11:51:19;49.81;25.92
69938;DHT22;57248;47.320;15.998;2023-07-16T11:53:51;50.24;25.23
69938;DHT22;57248;47.320;15.998;2023-07-16T11:56:23;45.62;28.54
69938;DHT22;57248;47.320;15.998;2023-07-16T11:58:55;45.39;28.91
69938;DHT22;57248;47.320;15.998;2023-07-16T12:01:27;48.17;26.37
69938;DHT22;57248;47.320;15.998;2023-07-16T12:03:59;46.65;27.08
69938;DHT22;57248;47.320;15.998;2023-07-16T12:06:31;46.75;26.93
69938;DHT22;57248;47.320;15.998;2023-07-16T12:08:57;49.56;26.93
69938;DHT22;57248;47.320;15.998;2023-07-16T12:11:29;50.82;25.07
69938;DHT22;57248;47.320;15.998;2023-07-16T12:14:01;48.86;25.13
69938;DHT22;57248;47.320;15.998;2023-07-16T12:16:35;48.76;25.49
69938;DHT22;57248;47.320;15.998;2023-07-16T12:19:08;52.24;22.60
69938;DHT22;57248;47.320;15.998;2023-07-16T12:21:40;52.66;24.16
69938;DHT22;57248;47.320;15.998;2023-07-16T12:24:12;49.09;25.40
69938;DHT22;57248;47.320;15.998;2023-07-16T12:26:44;44.16;29.04
69938;DHT22;57248;47.320;15.998;2023-07-16T12:29:17;44.99;28.07
69938;DHT22;57248;47.320;15.998;2023-07-16T12:31:50;48.76;25.86
69938;DHT22;57248;47.320;15.998;2023-07-16T12:34:21;44.54;29.13
69938;DHT22;57248;47.320;15.998;2023-07-16T12:36:54;51.74;24.86
69938;DHT22;57248;47.320;15.998;2023-07-16T12:39:28;51.63;24.55
69938;DHT22;57248;47.320;15.998;2023-07-16T12:42:00;45.31;27.73
69938;DHT22;57248;47.320;15.998;2023-07-16T12:44:32;42.51;31.55
69938;DHT22;57248;47.320;15.998;2023-07-16T12:47:05;44.68;28.82
69938;DHT22;57248;47.320;15.998;2023-07-16T12:49:39;42.33;30.84
69938;DHT22;57248;47.320;15.998;2023-07-16T12:52:11;42.84;30.70
69938;DHT22;57248;47.320;15.998;2023-07-16T12:54:45;47.93;26.34
69938;DHT22;57248;47.320;15.998;2023-07-16T12:57:17;45.14;29.06
69938;DHT22;57248;47.320;15.998;2023-07-16T12:59:49;47.52;27.74
69938;DHT22;57248;47.320;15.998;2023-07-16T13:02:22;48.34;26.39
69938;DHT22;57248;47.320;15.998;2023-07-16T13:04:55;50.44;24.99
69938;DHT22;57248;47.320;15.998;2023-07-16T13:07:21;49.33;24.87
69938;DHT22;57248;47.320;15.998;2023-07-16T13:09:53;46.24;28.23
69938;DHT22;57248;47.320;15.998;2023-07-16T13:12:26;46.13;27.84
69938;DHT22;57248;47.320;15.998;2023-07-16T13:14:58;49.43;25.88
69938;DHT22;57248;47.320;15.998;2023-07-16T13:17:25;49.63;23.92
69938;DHT22;57248;47.320;15.998;2023-07-16T13:19:57;44.03;29.35
69938;DHT22;57248;47.320;15.998;2023-07-16T13:22:30;47.96;26.53
69938;DHT22;57248;47.320;15.998;2023-07-16T13:25:03;50.65;25.33
69938;DHT22;57248;47.320;15.998;2023-07-16T13:27:35;49.54;24.73
69938;DHT22;57248;47.320;15.998;2023-07-16T13:30:07;52.12;24.76
69938;DHT22;57248;47.320;15.998;2023-07-16T13:32:38;43.89;29.66
69938;DHT22;57248;47.320;15.998;2023-07-16T13:35:10;43.39;30.11
69938;DHT22;57248;47.320;15.998;2023-07-16T13:37:49;43.89;29.25
69938;DHT22;57248;47.320;15.998;2023-07-16T13:40:23;46.50;26.96
69938;DHT22;57248;47.320;15.998;2023-07-16T13:42:55;42.15;31.45
69938;DHT22;57248;47.320;15.998;2023-07-16T13:45:27;43.00;30.57
69938;DHT22;57248;47.320;15.998;2023-07-16T13:48:00;48.58;26.84
69938;DHT22;57248;47.320;15.998;2023-07-16T13:50:32;50.96;24.52
69938;DHT22;57248;47.320;15.998;2023-07-16T13:52:58;50.32;25.18
69938;DHT22;57248;47.320;15.998;2023-07-16T13:55:32;51.41;24.26
69938;DHT22;57248;47.320;15.998;2023-07-16T13:58:06;47.09;27.00
69938;DHT22;57248;47.320;15.998;2023-07-16T14:00:37;47.48;26.54
69938;DHT22;57248;47.320;15.998;2023-07-16T14:03:10;48.78;26.05
69938;DHT22;57248;47.320;15.998;2023-07-16T14:05:36;51.38;24.60
69938;DHT22;57248;47.320;15.998;2023-07-16T14:08:10;49.95;25.24
69938;DHT22;57248;47.320;15.998;2023-07-16T14:10:36;50.80;24.06
69938;DHT22;57248;47.320;15.998;2023-07-16T14:13:11;50.96;24.34
69938;DHT22;57248;47.320;15.998;2023-07-16T14:15:44;50.18;23.67
69938;DHT22;57248;47.320;15.998;2023-07-16T14:18:17;47.18;29.90
69938;DHT22;57248;47.320;15.998;2023-07-16T14:20:50;43.22;31.21
69938;DHT22;57248;47.320;15.998;2023-07-16T14:23:22;43.78;31.49
69938;DHT22;57248;47.320;15.998;2023-07-16T14:25:54;43.03;32.96
69938;DHT22;57248;47.320;15.998;2023-07-16T14:28:28;45.63;31.32
69938;DHT22;57248;47.320;15.998;2023-07-16T14:31:00;48.08;29.25
69938;DHT22;57248;47.320;15.998;2023-07-16T14:33:32;44.15;32.44
69938;DHT22;57248;47.320;15.998;2023-07-16T14:36:06;42.22;34.54
69938;DHT22;57248;47.320;15.998;2023-07-16T14:38:51;41.62;36.17
69938;DHT22;57248;47.320;15.998;2023-07-16T14:41:23;40.42;38.71
69938;DHT22;57248;47.320;15.998;2023-07-16T14:43:50;41.16;36.00
69938;DHT22;57248;47.320;15.998;2023-07-16T14:46:21;41.09;37.28
69938;DHT22;57248;47.320;15.998;2023-07-16T14:48:53;41.55;34.57
69938;DHT22;57248;47.320;15.998;2023-07-16T14:51:27;42.74;33.62
69938;DHT22;57248;47.320;15.998;2023-07-16T14:54:00;41.54;35.44
69938;DHT22;57248;47.320;15.998;2023-07-16T14:56:26;40.39;39.00
69938;DHT22;57248;47.320;15.998;2023-07-16T14:58:58;39.67;39.17
69938;DHT22;57248;47.320;15.998;2023-07-16T15:01:31;39.22;39.36
69938;DHT22;57248;47.320;15.998;2023-07-16T15:04:03;38.79;41.14
69938;DHT22;57248;47.320;15.998;2023-07-16T15:06:37;38.79;40.13
69938;DHT22;57248;47.320;15.998;2023-07-16T15:09:09;39.03;39.20
69938;DHT22;57248;47.320;15.998;2023-07-16T15:11:41;38.74;40.45
69938;DHT22;57248;47.320;15.998;2023-07-16T15:14:13;38.68;40.36
69938;DHT22;57248;47.320;15.998;2023-07-16T15:16:45;38.60;39.41
69938;DHT22;57248;47.320;15.998;2023-07-16T15:19:17;38.02;41.04
69938;DHT22;57248;47.320;15.998;2023-07-16T15:21:51;37.73;40.71
69938;DHT22;57248;47.320;15.998;2023-07-16T15:24:23;37.55;43.09
69938;DHT22;57248;47.320;15.998;2023-07-16T15:26:49;37.02;44.34
69938;DHT22;57248;47.320;15.998;2023-07-16T15:29:22;36.84;43.32
69938;DHT22;57248;47.320;15.998;2023-07-16T15:31:54;37.08;41.89
69938;DHT22;57248;47.320;15.998;2023-07-16T15:34:27;37.83;41.98
69938;DHT22;57248;47.320;15.998;2023-07-16T15:36:59;37.07;42.89
69938;DHT22;57248;47.320;15.998;2023-07-16T15:39:31;36.43;42.74
69938;DHT22;57248;47.320;15.998;2023-07-16T15:42:04;36.25;41.43
69938;DHT22;57248;47.320;15.998;2023-07-16T15:44:30;35.99;43.49
69938;DHT22;57248;47.320;15.998;2023-07-16T15:47:03;35.39;45.67
69938;DHT22;57248;47.320;15.998;2023-07-16T15:49:38;35.88;44.34